createdAt,value
2018-05-31T00:02:10.480Z,0.30
2018-05-31T00:04:38.069Z,0.50
2018-05-31T00:07:05.633Z,0.40
2018-05-31T00:09:33.206Z,0.40
2018-05-31T00:12:00.789Z,0.40
2018-05-31T00:14:28.352Z,0.50
2018-05-31T00:16:56.276Z,0.20
2018-05-31T00:19:23.857Z,0.40
2018-05-31T00:21:51.433Z,0.40
2018-05-31T00:24:19.022Z,0.40
2018-05-31T00:26:46.596Z,0.50
2018-05-31T00:29:14.190Z,0.57
2018-05-31T00:31:41.772Z,0.57
2018-05-31T00:34:09.349Z,0.30
2018-05-31T00:36:36.941Z,0.40
2018-05-31T00:39:05.284Z,0.50
2018-05-31T00:41:32.848Z,0.40
2018-05-31T00:44:00.441Z,0.40
2018-05-31T00:46:28.034Z,0.20
2018-05-31T00:48:55.640Z,0.40
2018-05-31T00:51:23.249Z,0.50
2018-05-31T00:53:50.797Z,0.40
2018-05-31T00:56:18.376Z,0.50
2018-05-31T00:58:45.974Z,0.50
2018-05-31T01:01:13.581Z,0.40
2018-05-31T01:03:41.145Z,0.50
2018-05-31T01:06:08.717Z,0.40
2018-05-31T01:08:36.304Z,0.40
2018-05-31T01:11:03.888Z,0.40
2018-05-31T01:13:32.251Z,0.50
2018-05-31T01:15:59.827Z,0.30
2018-05-31T01:18:27.400Z,0.43
2018-05-31T01:20:55.025Z,0.40
2018-05-31T01:23:22.600Z,0.70
2018-05-31T01:25:50.949Z,0.40
2018-05-31T01:28:18.520Z,0.40
2018-05-31T01:30:46.116Z,0.73
2018-05-31T01:33:14.447Z,0.40
2018-05-31T01:35:42.012Z,0.30
2018-05-31T01:38:21.292Z,0.40
2018-05-31T01:40:48.939Z,0.40
2018-05-31T01:43:16.469Z,0.50
2018-05-31T01:45:44.074Z,0.40
2018-05-31T01:48:11.644Z,0.40
2018-05-31T01:50:39.208Z,0.50
2018-05-31T01:53:06.820Z,0.50
2018-05-31T01:55:34.379Z,0.50
2018-05-31T01:58:01.960Z,0.50
2018-05-31T02:00:29.528Z,0.50
2018-05-31T02:02:57.852Z,0.70
2018-05-31T02:05:25.460Z,0.50
2018-05-31T02:07:53.796Z,0.53
2018-05-31T02:10:21.376Z,0.50
2018-05-31T02:12:48.941Z,0.50
2018-05-31T02:15:16.506Z,0.43
2018-05-31T02:17:44.096Z,0.60
2018-05-31T02:20:11.669Z,0.60
2018-05-31T02:22:39.248Z,0.53
2018-05-31T02:25:06.810Z,0.60
2018-05-31T02:27:34.381Z,0.40
2018-05-31T02:30:01.977Z,0.50
2018-05-31T02:32:29.545Z,0.60
2018-05-31T02:34:57.113Z,0.50
2018-05-31T02:37:24.693Z,0.57
2018-05-31T02:39:52.264Z,0.70
2018-05-31T02:42:19.829Z,0.70
2018-05-31T02:44:47.423Z,0.57
2018-05-31T02:47:15.757Z,0.60
2018-05-31T02:49:43.364Z,0.50
2018-05-31T02:52:10.948Z,0.50
2018-05-31T02:54:38.504Z,0.60
2018-05-31T02:57:06.096Z,0.60
2018-05-31T02:59:33.656Z,0.60
2018-05-31T03:02:01.254Z,0.57
2018-05-31T03:04:28.857Z,0.50
2018-05-31T03:06:56.422Z,0.50
2018-05-31T03:09:24.021Z,0.70
2018-05-31T03:11:51.581Z,0.50
2018-05-31T03:14:19.140Z,0.60
2018-05-31T03:16:46.713Z,0.70
2018-05-31T03:19:14.285Z,0.60
2018-05-31T03:21:42.644Z,0.60
2018-05-31T03:24:10.201Z,0.60
2018-05-31T03:26:37.777Z,0.60
2018-05-31T03:29:05.353Z,0.50
2018-05-31T03:31:32.916Z,0.50
2018-05-31T03:34:00.525Z,0.60
2018-05-31T03:36:28.121Z,0.60
2018-05-31T03:38:55.704Z,0.60
2018-05-31T03:41:23.289Z,0.60
2018-05-31T03:43:50.860Z,0.60
2018-05-31T03:46:18.456Z,0.53
2018-05-31T03:48:46.789Z,0.80
2018-05-31T03:51:14.365Z,0.70
2018-05-31T03:53:41.956Z,0.93
2018-05-31T03:56:09.528Z,0.70
2018-05-31T03:58:37.132Z,0.70
2018-05-31T04:01:04.700Z,0.50
2018-05-31T04:03:32.261Z,0.63
2018-05-31T04:05:59.840Z,0.60
2018-05-31T04:08:27.424Z,0.60
2018-05-31T04:10:55.016Z,0.80
2018-05-31T04:13:22.606Z,0.60
2018-05-31T04:15:50.180Z,0.80
2018-05-31T04:18:17.741Z,0.60
2018-05-31T04:20:45.353Z,0.80
2018-05-31T04:23:12.945Z,0.60
2018-05-31T04:25:40.518Z,0.60
2018-05-31T04:28:08.091Z,1.17
2018-05-31T04:30:35.671Z,0.80
2018-05-31T04:33:03.256Z,1.00
2018-05-31T04:35:30.864Z,0.63
2018-05-31T04:37:58.432Z,0.80
2018-05-31T04:40:26.766Z,0.97
2018-05-31T04:42:54.349Z,1.00
2018-05-31T04:45:21.920Z,0.70
2018-05-31T04:47:49.552Z,0.70
2018-05-31T04:50:17.144Z,0.70
2018-05-31T04:52:44.708Z,0.80
2018-05-31T04:55:12.289Z,1.33
2018-05-31T04:57:39.866Z,0.80
2018-05-31T05:00:07.469Z,0.90
2018-05-31T05:02:35.818Z,1.00
2018-05-31T05:05:03.399Z,0.90
2018-05-31T05:07:30.990Z,0.90
2018-05-31T05:09:59.324Z,1.03
2018-05-31T05:12:26.924Z,0.70
2018-05-31T05:14:54.503Z,0.70
2018-05-31T05:17:22.081Z,0.70
2018-05-31T05:19:49.653Z,1.00
2018-05-31T05:22:17.224Z,0.80
2018-05-31T05:24:44.824Z,0.80
2018-05-31T05:27:12.425Z,0.87
2018-05-31T05:29:39.998Z,0.80
2018-05-31T05:32:07.580Z,0.70
2018-05-31T05:34:35.160Z,0.80
2018-05-31T05:37:02.748Z,0.70
2018-05-31T05:39:30.331Z,0.73
2018-05-31T05:41:57.901Z,0.80
2018-05-31T05:44:25.490Z,0.90
2018-05-31T05:46:53.824Z,0.80
2018-05-31T05:49:21.400Z,0.80
2018-05-31T05:51:49.147Z,0.90
2018-05-31T05:54:19.222Z,0.80
2018-05-31T05:56:47.665Z,0.80
2018-05-31T05:59:15.232Z,0.90
2018-05-31T06:01:42.850Z,0.87
2018-05-31T06:04:10.429Z,0.80
2018-05-31T06:06:38.009Z,1.00
2018-05-31T06:09:05.576Z,0.90
2018-05-31T06:11:33.920Z,0.90
2018-05-31T06:14:01.513Z,0.90
2018-05-31T06:16:29.095Z,0.97
2018-05-31T06:18:56.668Z,0.87
2018-05-31T06:21:24.245Z,0.90
2018-05-31T06:23:51.815Z,1.00
2018-05-31T06:26:19.459Z,1.03
2018-05-31T06:28:47.001Z,0.67
2018-05-31T06:31:14.561Z,0.93
2018-05-31T06:33:42.149Z,1.10
2018-05-31T06:36:09.716Z,1.17
2018-05-31T06:38:37.293Z,1.20
2018-05-31T06:41:04.861Z,1.07
2018-05-31T06:43:32.412Z,1.00
2018-05-31T06:45:59.984Z,1.03
2018-05-31T06:48:27.555Z,0.83
2018-05-31T06:50:55.133Z,1.30
2018-05-31T06:53:22.712Z,0.90
2018-05-31T06:55:50.270Z,0.90
2018-05-31T06:58:17.830Z,1.03
2018-05-31T07:00:45.463Z,1.10
2018-05-31T07:03:13.052Z,0.90
2018-05-31T07:05:40.636Z,1.00
2018-05-31T07:08:08.210Z,1.10
2018-05-31T07:10:35.768Z,1.20
2018-05-31T07:13:03.324Z,1.03
2018-05-31T07:15:30.904Z,0.90
2018-05-31T07:17:58.465Z,1.07
2018-05-31T07:20:26.025Z,0.87
2018-05-31T07:22:53.580Z,1.20
2018-05-31T07:25:21.173Z,1.17
2018-05-31T07:27:48.780Z,1.27
2018-05-31T07:30:16.857Z,1.10
2018-05-31T07:32:44.413Z,1.03
2018-05-31T07:35:11.997Z,1.10
2018-05-31T07:37:39.566Z,1.37
2018-05-31T07:40:07.137Z,1.30
2018-05-31T07:42:35.476Z,1.07
2018-05-31T07:45:03.037Z,1.30
2018-05-31T07:47:30.600Z,1.07
2018-05-31T07:49:58.162Z,1.13
2018-05-31T07:52:25.724Z,1.30
2018-05-31T07:54:53.280Z,1.10
2018-05-31T07:57:20.856Z,1.10
2018-05-31T07:59:48.433Z,0.90
2018-05-31T08:02:16.780Z,1.20
2018-05-31T08:04:44.353Z,1.10
2018-05-31T08:07:11.919Z,1.10
2018-05-31T08:09:40.830Z,1.30
2018-05-31T08:12:09.715Z,1.67
2018-05-31T08:14:37.304Z,1.17
2018-05-31T08:17:04.868Z,1.27
2018-05-31T08:19:32.459Z,1.10
2018-05-31T08:22:00.036Z,1.10
2018-05-31T08:24:27.600Z,1.03
2018-05-31T08:26:55.949Z,1.30
2018-05-31T08:29:23.504Z,1.13
2018-05-31T08:31:51.056Z,1.37
2018-05-31T08:34:18.612Z,1.23
2018-05-31T08:36:46.173Z,1.50
2018-05-31T08:39:13.724Z,1.00
2018-05-31T08:41:41.313Z,1.90
2018-05-31T08:44:08.939Z,1.10
2018-05-31T08:46:36.464Z,1.20
2018-05-31T08:49:04.024Z,1.20
2018-05-31T08:51:32.352Z,1.20
2018-05-31T08:53:59.944Z,1.23
2018-05-31T08:56:28.275Z,1.20
2018-05-31T08:58:55.840Z,1.40
2018-05-31T09:01:23.405Z,1.40
2018-05-31T09:03:50.972Z,1.30
2018-05-31T09:06:19.333Z,1.47
2018-05-31T09:08:46.885Z,1.30
2018-05-31T09:11:14.441Z,1.20
2018-05-31T09:13:42.004Z,1.30
2018-05-31T09:16:09.577Z,1.50
2018-05-31T09:18:37.176Z,1.10
2018-05-31T09:21:05.514Z,1.43
2018-05-31T09:23:33.074Z,1.40
2018-05-31T09:26:00.633Z,1.50
2018-05-31T09:28:28.195Z,1.20
2018-05-31T09:30:55.768Z,1.20
2018-05-31T09:33:23.340Z,1.33
2018-05-31T09:35:50.892Z,1.23
2018-05-31T09:38:18.453Z,1.57
2018-05-31T09:40:46.017Z,1.40
2018-05-31T09:43:13.609Z,1.50
2018-05-31T09:45:41.168Z,1.10
2018-05-31T09:48:08.721Z,1.40
2018-05-31T09:50:36.276Z,1.40
2018-05-31T09:53:04.597Z,1.40
2018-05-31T09:55:32.185Z,1.43
2018-05-31T09:57:59.759Z,1.30
2018-05-31T10:00:33.020Z,1.50
2018-05-31T10:03:00.577Z,1.40
2018-05-31T10:05:28.132Z,1.20
2018-05-31T10:07:55.685Z,1.37
2018-05-31T10:10:23.244Z,1.30
2018-05-31T10:12:50.834Z,1.40
2018-05-31T10:15:18.389Z,1.40
2018-05-31T10:17:45.951Z,1.20
2018-05-31T10:20:13.510Z,1.50
2018-05-31T10:22:41.065Z,1.33
2018-05-31T10:25:08.638Z,1.40
2018-05-31T10:27:36.194Z,1.40
2018-05-31T10:30:03.810Z,1.20
2018-05-31T10:32:31.344Z,1.33
2018-05-31T10:34:58.896Z,1.37
2018-05-31T10:37:26.480Z,1.40
2018-05-31T10:39:54.032Z,1.47
2018-05-31T10:42:21.585Z,1.40
2018-05-31T10:44:49.145Z,1.53
2018-05-31T10:47:16.701Z,1.27
2018-05-31T10:49:44.284Z,1.20
2018-05-31T10:52:11.853Z,1.40
2018-05-31T10:54:39.408Z,1.47
2018-05-31T10:57:06.960Z,1.30
2018-05-31T10:59:34.512Z,1.20
2018-05-31T11:02:02.097Z,1.37
2018-05-31T11:04:29.656Z,1.50
2018-05-31T11:06:57.221Z,1.40
2018-05-31T11:09:24.784Z,1.50
2018-05-31T11:11:52.337Z,1.53
2018-05-31T11:14:19.925Z,1.23
2018-05-31T11:16:47.484Z,1.30
2018-05-31T11:19:15.070Z,1.50
2018-05-31T11:21:42.638Z,1.20
2018-05-31T11:24:10.220Z,1.30
2018-05-31T11:26:37.837Z,1.50
2018-05-31T11:29:06.164Z,1.27
2018-05-31T11:31:37.291Z,1.20
2018-05-31T11:34:04.849Z,1.10
2018-05-31T11:36:32.404Z,1.30
2018-05-31T11:38:59.992Z,1.17
2018-05-31T11:41:27.549Z,1.30
2018-05-31T11:43:55.100Z,1.30
2018-05-31T11:46:22.668Z,1.30
2018-05-31T11:48:50.275Z,1.27
2018-05-31T11:51:17.861Z,1.20
2018-05-31T11:53:45.429Z,1.20
2018-05-31T11:56:12.988Z,1.13
2018-05-31T11:58:40.545Z,1.40
2018-05-31T12:01:08.108Z,1.00
2018-05-31T12:03:35.721Z,1.10
2018-05-31T12:06:03.288Z,1.23
2018-05-31T12:08:31.625Z,1.30
2018-05-31T12:10:59.194Z,1.30
2018-05-31T12:13:26.748Z,1.10
2018-05-31T12:15:54.357Z,1.27
2018-05-31T12:18:21.929Z,1.30
2018-05-31T12:20:49.493Z,1.30
2018-05-31T12:23:17.054Z,1.13
2018-05-31T12:25:44.612Z,1.20
2018-05-31T12:28:12.198Z,1.27
2018-05-31T12:30:39.757Z,1.30
2018-05-31T12:33:07.320Z,1.20
2018-05-31T12:35:34.888Z,1.23
2018-05-31T12:38:02.445Z,1.10
2018-05-31T12:40:30.033Z,1.30
2018-05-31T12:42:57.596Z,1.20
2018-05-31T12:45:25.928Z,1.07
2018-05-31T12:47:53.492Z,1.20
2018-05-31T12:50:21.056Z,1.20
2018-05-31T12:52:48.674Z,1.07
2018-05-31T12:55:16.239Z,1.20
2018-05-31T12:57:43.798Z,1.00
2018-05-31T13:00:11.374Z,1.10
2018-05-31T13:02:38.954Z,1.50
2018-05-31T13:05:06.545Z,1.20
2018-05-31T13:07:34.880Z,1.60
2018-05-31T13:10:02.445Z,1.20
2018-05-31T13:12:30.009Z,1.20
2018-05-31T13:14:57.583Z,1.43
2018-05-31T13:17:25.176Z,1.13
2018-05-31T13:19:52.736Z,1.00
2018-05-31T13:22:20.302Z,1.00
2018-05-31T13:24:47.873Z,1.00
2018-05-31T13:27:15.434Z,1.40
2018-05-31T13:29:43.784Z,1.10
2018-05-31T13:32:11.347Z,1.00
2018-05-31T13:34:39.669Z,1.10
2018-05-31T13:37:07.222Z,1.20
2018-05-31T13:39:34.783Z,1.20
2018-05-31T13:42:02.396Z,1.20
2018-05-31T13:44:30.729Z,1.00
2018-05-31T13:46:58.296Z,1.00
2018-05-31T13:49:25.892Z,1.40
2018-05-31T13:51:54.133Z,1.00
2018-05-31T13:54:21.774Z,1.00
2018-05-31T13:56:50.100Z,1.00
2018-05-31T13:59:18.430Z,1.20
2018-05-31T14:01:45.994Z,1.10
2018-05-31T14:04:16.149Z,1.23
2018-05-31T14:06:43.771Z,1.17
2018-05-31T14:09:11.361Z,1.07
2018-05-31T14:11:38.925Z,1.27
2018-05-31T14:14:06.493Z,1.00
2018-05-31T14:16:34.069Z,1.03
2018-05-31T14:19:01.632Z,0.80
2018-05-31T14:21:29.984Z,1.17
2018-05-31T14:23:57.546Z,1.27
2018-05-31T14:26:25.875Z,1.10
2018-05-31T14:28:53.437Z,1.10
2018-05-31T14:31:21.041Z,1.10
2018-05-31T14:33:49.382Z,0.90
2018-05-31T14:36:16.945Z,1.07
2018-05-31T14:38:44.497Z,1.20
2018-05-31T14:41:12.065Z,1.00
2018-05-31T14:43:39.656Z,1.00
2018-05-31T14:46:07.217Z,1.10
2018-05-31T14:48:34.864Z,0.90
2018-05-31T14:51:02.437Z,1.27
2018-05-31T14:53:30.052Z,0.93
2018-05-31T14:55:57.644Z,1.10
2018-05-31T14:58:25.218Z,1.20
2018-05-31T15:00:53.546Z,1.00
2018-05-31T15:03:21.108Z,1.10
2018-05-31T15:05:48.701Z,1.17
2018-05-31T15:08:16.286Z,1.00
2018-05-31T15:10:44.625Z,1.30
2018-05-31T15:13:12.193Z,0.90
2018-05-31T15:15:41.540Z,1.70
2018-05-31T15:18:10.799Z,1.40
2018-05-31T15:20:38.488Z,1.13
2018-05-31T15:23:08.038Z,1.23
2018-05-31T15:25:37.559Z,1.23
2018-05-31T15:28:05.336Z,1.20
2018-05-31T15:30:34.142Z,1.30
2018-05-31T15:33:03.459Z,1.00
2018-05-31T15:35:32.392Z,1.03
2018-05-31T15:37:59.921Z,1.00
2018-05-31T15:40:27.474Z,1.13
2018-05-31T15:42:55.029Z,1.00
2018-05-31T15:45:22.616Z,0.97
2018-05-31T15:47:50.230Z,1.10
2018-05-31T15:50:17.804Z,0.90
2018-05-31T15:52:46.128Z,0.90
2018-05-31T15:55:14.311Z,1.10
2018-05-31T15:57:41.912Z,0.90
2018-05-31T16:00:10.275Z,1.10
2018-05-31T16:02:43.031Z,1.00
2018-05-31T16:05:10.603Z,0.83
2018-05-31T16:07:40.897Z,1.13
2018-05-31T16:10:08.480Z,0.87
2018-05-31T16:12:36.060Z,0.80
2018-05-31T16:15:04.434Z,0.90
2018-05-31T16:17:31.994Z,0.80
2018-05-31T16:19:59.592Z,0.77
2018-05-31T16:22:27.153Z,0.90
2018-05-31T16:24:54.713Z,0.73
2018-05-31T16:27:22.490Z,0.80
2018-05-31T16:29:50.048Z,1.00
2018-05-31T16:32:17.626Z,0.90
2018-05-31T16:34:45.184Z,0.90
2018-05-31T16:37:12.748Z,0.80
2018-05-31T16:39:40.331Z,0.80
2018-05-31T16:42:07.890Z,1.00
2018-05-31T16:44:35.445Z,1.17
2018-05-31T16:47:03.014Z,0.70
2018-05-31T16:49:31.361Z,0.90
2018-05-31T16:51:58.948Z,1.00
2018-05-31T16:54:26.512Z,1.00
2018-05-31T16:56:54.076Z,1.20
2018-05-31T16:59:22.405Z,1.10
2018-05-31T17:01:49.964Z,0.80
2018-05-31T17:04:17.559Z,0.93
2018-05-31T17:06:45.116Z,1.73
2018-05-31T17:09:12.673Z,1.00
2018-05-31T17:11:40.236Z,0.90
2018-05-31T17:14:07.795Z,1.00
2018-05-31T17:16:35.384Z,1.00
2018-05-31T17:19:03.719Z,0.90
2018-05-31T17:21:31.292Z,0.80
2018-05-31T17:23:59.669Z,1.20
2018-05-31T17:26:27.238Z,1.10
2018-05-31T17:28:55.597Z,0.90
2018-05-31T17:31:23.169Z,1.00
2018-05-31T17:33:50.739Z,0.93
2018-05-31T17:36:18.313Z,0.90
2018-05-31T17:38:45.888Z,0.70
2018-05-31T17:41:13.485Z,1.10
2018-05-31T17:43:41.073Z,0.77
2018-05-31T17:46:09.414Z,1.03
2018-05-31T17:48:36.976Z,0.80
2018-05-31T17:51:04.544Z,0.90
2018-05-31T17:53:32.128Z,1.07
2018-05-31T17:55:59.693Z,0.80
2018-05-31T17:58:28.030Z,1.00
2018-05-31T18:00:55.600Z,0.90
2018-05-31T18:03:23.195Z,0.80
2018-05-31T18:05:50.795Z,1.00
2018-05-31T18:08:18.368Z,0.80
2018-05-31T18:10:45.925Z,1.13
2018-05-31T18:13:13.496Z,0.83
2018-05-31T18:15:41.073Z,0.80
2018-05-31T18:18:08.669Z,0.80
2018-05-31T18:20:36.267Z,0.90
2018-05-31T18:23:03.820Z,1.17
2018-05-31T18:25:31.387Z,1.00
2018-05-31T18:27:58.953Z,0.80
2018-05-31T18:30:26.553Z,1.00
2018-05-31T18:32:54.123Z,1.10
2018-05-31T18:35:21.692Z,0.80
2018-05-31T18:37:49.270Z,0.90
2018-05-31T18:40:16.841Z,0.90
2018-05-31T18:42:44.425Z,0.80
2018-05-31T18:45:12.021Z,0.97
2018-05-31T18:47:40.353Z,1.10
2018-05-31T18:50:07.916Z,0.90
2018-05-31T18:52:35.479Z,1.07
2018-05-31T18:55:03.071Z,0.90
2018-05-31T18:57:31.403Z,0.93
2018-05-31T18:59:58.961Z,1.00
2018-05-31T19:02:26.520Z,0.90
2018-05-31T19:04:54.086Z,0.90
2018-05-31T19:07:28.461Z,1.20
2018-05-31T19:12:54.924Z,0.80
2018-05-31T19:15:22.492Z,0.80
2018-05-31T19:17:50.075Z,1.00
2018-05-31T19:20:17.644Z,1.00
2018-05-31T19:22:45.213Z,0.97
2018-05-31T19:25:18.381Z,1.00
2018-05-31T19:27:45.938Z,0.90
2018-05-31T19:30:19.072Z,1.10
2018-05-31T19:32:47.388Z,1.00
2018-05-31T19:35:20.736Z,1.00
2018-05-31T19:37:49.072Z,0.90
2018-05-31T19:40:16.628Z,0.73
2018-05-31T19:42:49.857Z,0.90
2018-05-31T19:45:17.432Z,1.30
2018-05-31T19:47:45.789Z,1.13
2018-05-31T19:50:13.356Z,0.90
2018-05-31T19:52:46.560Z,0.87
2018-05-31T19:55:14.120Z,1.00
2018-05-31T19:57:48.198Z,0.90
2018-05-31T20:00:21.392Z,0.93
2018-05-31T20:02:54.553Z,1.20
2018-05-31T20:05:22.136Z,1.00
2018-05-31T20:07:49.700Z,1.00
2018-05-31T20:10:17.259Z,1.33
2018-05-31T20:12:44.828Z,1.10
2018-05-31T20:15:12.398Z,1.07
2018-05-31T20:17:39.989Z,1.00
2018-05-31T20:20:07.546Z,1.20
2018-05-31T20:22:35.100Z,1.13
2018-05-31T20:25:02.664Z,1.23
2018-05-31T20:27:30.225Z,1.10
2018-05-31T20:29:57.809Z,1.10
2018-05-31T20:32:25.407Z,1.10
2018-05-31T20:34:52.966Z,1.40
2018-05-31T20:37:20.520Z,1.40
2018-05-31T20:39:48.090Z,1.27
2018-05-31T20:42:15.679Z,1.30
2018-05-31T20:44:43.239Z,1.10
2018-05-31T20:47:10.796Z,1.57
2018-05-31T20:49:38.353Z,1.27
2018-05-31T20:52:05.914Z,1.30
2018-05-31T20:54:33.504Z,1.23
2018-05-31T20:57:01.065Z,1.03
2018-05-31T20:59:28.653Z,1.70
2018-05-31T21:01:56.229Z,1.30
2018-05-31T21:04:24.564Z,1.40
2018-05-31T21:06:52.214Z,1.20
2018-05-31T21:09:19.795Z,1.20
2018-05-31T21:11:47.367Z,1.67
2018-05-31T21:14:14.933Z,1.20
2018-05-31T21:16:42.488Z,1.10
2018-05-31T21:19:10.090Z,1.10
2018-05-31T21:21:37.657Z,1.20
2018-05-31T21:24:05.215Z,1.07
2018-05-31T21:26:32.778Z,1.20
2018-05-31T21:29:00.342Z,1.40
2018-05-31T21:31:27.922Z,1.30
2018-05-31T21:33:55.489Z,1.17
2018-05-31T21:36:23.123Z,1.10
2018-05-31T21:38:50.637Z,1.10
2018-05-31T21:41:18.209Z,1.20
2018-05-31T21:43:45.808Z,1.30
2018-05-31T21:46:13.374Z,1.30
2018-05-31T21:48:40.957Z,1.30
2018-05-31T21:51:08.514Z,1.13
2018-05-31T21:53:36.080Z,1.10
2018-05-31T21:56:03.673Z,1.30
2018-05-31T21:58:31.999Z,1.40
2018-05-31T22:00:59.557Z,1.20
2018-05-31T22:03:27.114Z,1.33
2018-05-31T22:05:54.668Z,1.50
2018-05-31T22:08:22.240Z,1.40
2018-05-31T22:10:49.801Z,1.03
2018-05-31T22:13:17.360Z,1.40
2018-05-31T22:15:44.920Z,1.57
2018-05-31T22:18:12.477Z,2.13
2018-05-31T22:20:40.064Z,1.50
2018-05-31T22:23:08.393Z,1.23
2018-05-31T22:25:35.954Z,1.37
2018-05-31T22:28:03.528Z,1.27
2018-05-31T22:30:31.088Z,1.50
2018-05-31T22:32:58.675Z,2.00
2018-05-31T22:35:26.252Z,1.30
2018-05-31T22:37:53.825Z,1.53
2018-05-31T22:40:21.380Z,1.47
2018-05-31T22:42:48.982Z,1.33
2018-05-31T22:45:16.581Z,1.27
2018-05-31T22:47:44.149Z,1.10
2018-05-31T22:50:11.712Z,1.37
2018-05-31T22:52:40.033Z,1.10
2018-05-31T22:55:07.593Z,1.20
2018-05-31T22:57:35.173Z,1.30
2018-05-31T23:00:02.733Z,1.53
2018-05-31T23:02:30.301Z,1.30
2018-05-31T23:04:57.865Z,1.30
2018-05-31T23:07:25.423Z,1.30
2018-05-31T23:09:53.013Z,1.33
2018-05-31T23:12:20.569Z,1.30
2018-05-31T23:14:48.129Z,1.50
2018-05-31T23:17:15.687Z,1.43
2018-05-31T23:19:43.250Z,1.40
2018-05-31T23:22:10.840Z,1.47
2018-05-31T23:24:38.405Z,1.40
2018-05-31T23:27:05.966Z,1.67
2018-05-31T23:29:33.528Z,1.37
2018-05-31T23:32:01.089Z,1.50
2018-05-31T23:34:28.676Z,1.70
2018-05-31T23:36:56.234Z,1.70
2018-05-31T23:39:23.800Z,1.43
2018-05-31T23:41:51.356Z,1.20
2018-05-31T23:44:18.912Z,1.20
2018-05-31T23:46:46.505Z,1.60
2018-05-31T23:49:14.064Z,1.50
2018-05-31T23:51:41.637Z,1.57
2018-05-31T23:54:09.217Z,1.50
2018-05-31T23:56:36.784Z,1.47
2018-05-31T23:59:04.366Z,1.20
